sensor_id;sensor_type;location;lat;lon;timestamp;pressure;altitude;pressure_sealevel;temperature;humidity
69187;BME280;56301;56.864;60.554;2022-10-31T00:02:16;96921.31;;;25.10;45.75
69187;BME280;56301;56.864;60.554;2022-10-31T00:04:38;96927.78;;;25.09;45.79
69187;BME280;56301;56.864;60.554;2022-10-31T00:07:00;96921.50;;;25.09;45.57
69187;BME280;56301;56.864;60.554;2022-10-31T00:09:23;96922.97;;;25.11;45.76
69187;BME280;56301;56.864;60.554;2022-10-31T00:11:45;96922.34;;;25.09;46.10
69187;BME280;56301;56.864;60.554;2022-10-31T00:14:08;96921.50;;;25.09;45.19
69187;BME280;56301;56.864;60.554;2022-10-31T00:16:30;96907.97;;;25.09;46.09
69187;BME280;56301;56.864;60.554;2022-10-31T00:18:54;96910.69;;;25.09;45.86
69187;BME280;56301;56.864;60.554;2022-10-31T00:21:16;96908.22;;;25.07;45.85
69187;BME280;56301;56.864;60.554;2022-10-31T00:23:39;96912.00;;;25.06;45.76
69187;BME280;56301;56.864;60.554;2022-10-31T00:26:02;96902.81;;;25.07;45.88
69187;BME280;56301;56.864;60.554;2022-10-31T00:28:25;96905.09;;;25.10;45.70
69187;BME280;56301;56.864;60.554;2022-10-31T00:30:47;96897.41;;;25.07;45.46
69187;BME280;56301;56.864;60.554;2022-10-31T00:33:09;96896.56;;;25.07;45.88
69187;BME280;56301;56.864;60.554;2022-10-31T00:35:32;96893.25;;;25.05;46.08
69187;BME280;56301;56.864;60.554;2022-10-31T00:37:55;96889.53;;;25.06;45.91
69187;BME280;56301;56.864;60.554;2022-10-31T00:40:17;96884.09;;;25.06;46.10
69187;BME280;56301;56.864;60.554;2022-10-31T00:42:40;96883.25;;;25.05;46.08
69187;BME280;56301;56.864;60.554;2022-10-31T00:45:02;96877.84;;;25.05;45.91
69187;BME280;56301;56.864;60.554;2022-10-31T00:47:25;96875.75;;;25.07;46.10
69187;BME280;56301;56.864;60.554;2022-10-31T00:49:47;96879.53;;;25.06;45.50
69187;BME280;56301;56.864;60.554;2022-10-31T00:52:10;96872.38;;;25.12;45.73
69187;BME280;56301;56.864;60.554;2022-10-31T00:54:33;96874.25;;;25.11;45.63
69187;BME280;56301;56.864;60.554;2022-10-31T00:56:55;96877.38;;;25.08;46.11
69187;BME280;56301;56.864;60.554;2022-10-31T00:59:18;96877.84;;;25.05;45.83
69187;BME280;56301;56.864;60.554;2022-10-31T01:01:41;96877.84;;;25.05;45.43
69187;BME280;56301;56.864;60.554;2022-10-31T01:06:45;96869.50;;;25.07;46.20
69187;BME280;56301;56.864;60.554;2022-10-31T01:09:07;96868.69;;;25.06;45.76
69187;BME280;56301;56.864;60.554;2022-10-31T01:11:30;96866.19;;;25.05;45.64
69187;BME280;56301;56.864;60.554;2022-10-31T01:13:53;96865.38;;;25.04;45.29
69187;BME280;56301;56.864;60.554;2022-10-31T01:16:16;96861.53;;;25.12;45.68
69187;BME280;56301;56.864;60.554;2022-10-31T01:18:39;96859.09;;;25.10;44.80
69187;BME280;56301;56.864;60.554;2022-10-31T01:23:25;96857.88;;;25.06;45.20
69187;BME280;56301;56.864;60.554;2022-10-31T01:25:48;96862.47;;;25.06;45.51
69187;BME280;56301;56.864;60.554;2022-10-31T01:30:52;96855.16;;;25.06;45.61
69187;BME280;56301;56.864;60.554;2022-10-31T01:33:14;96855.16;;;25.06;45.85
69187;BME280;56301;56.864;60.554;2022-10-31T01:40:59;96846.03;;;25.19;44.96
69187;BME280;56301;56.864;60.554;2022-10-31T01:43:21;96850.72;;;25.24;45.09
69187;BME280;56301;56.864;60.554;2022-10-31T01:45:44;96842.59;;;25.24;45.41
69187;BME280;56301;56.864;60.554;2022-10-31T01:50:50;96835.09;;;25.26;45.98
69187;BME280;56301;56.864;60.554;2022-10-31T01:53:14;96829.69;;;25.26;44.90
69187;BME280;56301;56.864;60.554;2022-10-31T01:58:22;96835.44;;;25.29;45.04
69187;BME280;56301;56.864;60.554;2022-10-31T02:00:45;96837.09;;;25.30;45.81
69187;BME280;56301;56.864;60.554;2022-10-31T02:05:50;96836.28;;;25.30;44.59
69187;BME280;56301;56.864;60.554;2022-10-31T02:08:21;96836.28;;;25.30;44.74
69187;BME280;56301;56.864;60.554;2022-10-31T02:10:46;96834.63;;;25.29;44.75
69187;BME280;56301;56.864;60.554;2022-10-31T02:13:08;96834.97;;;25.20;45.60
69187;BME280;56301;56.864;60.554;2022-10-31T02:15:39;96834.84;;;25.15;44.98
69187;BME280;56301;56.864;60.554;2022-10-31T02:18:02;96835.56;;;25.11;45.80
69187;BME280;56301;56.864;60.554;2022-10-31T02:25:47;96832.44;;;25.07;45.13
69187;BME280;56301;56.864;60.554;2022-10-31T02:34:02;96828.56;;;25.03;45.19
69187;BME280;56301;56.864;60.554;2022-10-31T02:48:54;96822.53;;;25.01;45.44
69187;BME280;56301;56.864;60.554;2022-10-31T02:51:17;96810.91;;;25.01;46.01
69187;BME280;56301;56.864;60.554;2022-10-31T02:53:40;96820.91;;;25.00;46.06
69187;BME280;56301;56.864;60.554;2022-10-31T02:56:14;96823.63;;;25.00;46.31
69187;BME280;56301;56.864;60.554;2022-10-31T02:58:38;96823.63;;;25.00;45.73
69187;BME280;56301;56.864;60.554;2022-10-31T03:03:27;96826.31;;;25.00;46.37
69187;BME280;56301;56.864;60.554;2022-10-31T03:05:55;96820.09;;;25.00;46.11
69187;BME280;56301;56.864;60.554;2022-10-31T03:08:30;96824.69;;;24.99;46.45
69187;BME280;56301;56.864;60.554;2022-10-31T03:10:59;96819.28;;;24.99;45.66
69187;BME280;56301;56.864;60.554;2022-10-31T03:19:22;96813.03;;;24.98;45.80
69187;BME280;56301;56.864;60.554;2022-10-31T03:21:20;96819.28;;;24.99;45.84
69187;BME280;56301;56.864;60.554;2022-10-31T03:23:44;96815.97;;;24.97;45.81
69187;BME280;56301;56.864;60.554;2022-10-31T03:26:15;96803.25;;;24.97;45.05
69187;BME280;56301;56.864;60.554;2022-10-31T03:28:41;96813.25;;;24.97;45.35
69187;BME280;56301;56.864;60.554;2022-10-31T03:31:05;96815.75;;;24.98;46.11
69187;BME280;56301;56.864;60.554;2022-10-31T03:33:32;96816.22;;;25.07;44.80
69187;BME280;56301;56.864;60.554;2022-10-31T03:35:58;96805.84;;;25.04;45.73
69187;BME280;56301;56.864;60.554;2022-10-31T03:38:22;96813.84;;;24.99;45.79
69187;BME280;56301;56.864;60.554;2022-10-31T03:40:45;96805.13;;;24.85;45.96
69187;BME280;56301;56.864;60.554;2022-10-31T03:43:10;96815.69;;;24.87;46.01
69187;BME280;56301;56.864;60.554;2022-10-31T03:45:35;96814.06;;;24.86;45.85
69187;BME280;56301;56.864;60.554;2022-10-31T03:48:00;96817.72;;;24.91;45.62
69187;BME280;56301;56.864;60.554;2022-10-31T03:50:23;96817.38;;;24.88;46.26
69187;BME280;56301;56.864;60.554;2022-10-31T03:55:17;96822.97;;;24.74;45.91
69187;BME280;56301;56.864;60.554;2022-10-31T03:57:59;96817.19;;;24.71;46.35
69187;BME280;56301;56.864;60.554;2022-10-31T04:00:24;96818.88;;;24.84;45.92
69187;BME280;56301;56.864;60.554;2022-10-31T04:02:50;96822.88;;;24.81;46.12
69187;BME280;56301;56.864;60.554;2022-10-31T04:05:16;96792.41;;;24.74;45.91
69187;BME280;56301;56.864;60.554;2022-10-31T04:07:41;96817.66;;;24.68;45.96
69187;BME280;56301;56.864;60.554;2022-10-31T04:10:06;96811.66;;;24.66;44.77
69187;BME280;56301;56.864;60.554;2022-10-31T04:12:29;96818.91;;;24.65;44.80
69187;BME280;56301;56.864;60.554;2022-10-31T04:15:12;96823.75;;;24.63;45.39
69187;BME280;56301;56.864;60.554;2022-10-31T04:17:37;96817.75;;;24.61;44.55
69187;BME280;56301;56.864;60.554;2022-10-31T04:20:01;96812.34;;;24.61;45.50
69187;BME280;56301;56.864;60.554;2022-10-31T04:22:24;96812.34;;;24.61;44.58
69187;BME280;56301;56.864;60.554;2022-10-31T04:24:48;96814.47;;;24.59;45.40
69187;BME280;56301;56.864;60.554;2022-10-31T04:27:12;96810.69;;;24.60;45.31
69187;BME280;56301;56.864;60.554;2022-10-31T04:29:35;96809.06;;;24.59;45.46
69187;BME280;56301;56.864;60.554;2022-10-31T04:31:57;96816.34;;;24.59;45.52
69187;BME280;56301;56.864;60.554;2022-10-31T04:34:19;96812.78;;;24.58;44.86
69187;BME280;56301;56.864;60.554;2022-10-31T04:36:42;96805.75;;;24.57;45.26
69187;BME280;56301;56.864;60.554;2022-10-31T04:39:04;96815.72;;;24.57;45.17
69187;BME280;56301;56.864;60.554;2022-10-31T04:41:34;96809.50;;;24.56;45.35
69187;BME280;56301;56.864;60.554;2022-10-31T04:44:00;96809.50;;;24.56;45.06
69187;BME280;56301;56.864;60.554;2022-10-31T04:46:23;96811.38;;;24.56;44.98
69187;BME280;56301;56.864;60.554;2022-10-31T04:48:45;96812.22;;;24.56;45.26
69187;BME280;56301;56.864;60.554;2022-10-31T04:51:08;96804.91;;;24.57;45.12
69187;BME280;56301;56.864;60.554;2022-10-31T04:53:30;96805.75;;;24.57;44.88
69187;BME280;56301;56.864;60.554;2022-10-31T04:56:16;96813.28;;;24.55;44.92
69187;BME280;56301;56.864;60.554;2022-10-31T04:58:41;96810.56;;;24.55;45.17
69187;BME280;56301;56.864;60.554;2022-10-31T05:01:05;96806.19;;;24.54;44.87
69187;BME280;56301;56.864;60.554;2022-10-31T05:03:28;96803.50;;;24.54;44.61
69187;BME280;56301;56.864;60.554;2022-10-31T05:05:51;96812.41;;;24.55;44.86
69187;BME280;56301;56.864;60.554;2022-10-31T05:08:14;96815.13;;;24.55;44.23
69187;BME280;56301;56.864;60.554;2022-10-31T05:10:36;96813.28;;;24.55;44.83
69187;BME280;56301;56.864;60.554;2022-10-31T05:13:00;96807.88;;;24.55;44.74
69187;BME280;56301;56.864;60.554;2022-10-31T05:15:49;96810.31;;;24.57;44.76
69187;BME280;56301;56.864;60.554;2022-10-31T05:18:41;96814.91;;;24.56;45.25
69187;BME280;56301;56.864;60.554;2022-10-31T05:21:26;96819.88;;;24.59;44.94
69187;BME280;56301;56.864;60.554;2022-10-31T05:23:53;96810.31;;;24.57;45.06
69187;BME280;56301;56.864;60.554;2022-10-31T05:26:18;96821.13;;;24.57;44.68
69187;BME280;56301;56.864;60.554;2022-10-31T05:28:41;96814.66;;;24.58;45.12
69187;BME280;56301;56.864;60.554;2022-10-31T05:31:03;96824.66;;;24.57;45.26
69187;BME280;56301;56.864;60.554;2022-10-31T05:33:27;96815.50;;;24.58;44.70
69187;BME280;56301;56.864;60.554;2022-10-31T05:35:58;96818.19;;;24.58;44.78
69187;BME280;56301;56.864;60.554;2022-10-31T05:38:29;96821.75;;;24.59;44.81
69187;BME280;56301;56.864;60.554;2022-10-31T05:40:55;96818.19;;;24.58;44.48
69187;BME280;56301;56.864;60.554;2022-10-31T05:43:18;96817.38;;;24.58;45.10
69187;BME280;56301;56.864;60.554;2022-10-31T05:45:41;96814.47;;;24.59;45.07
69187;BME280;56301;56.864;60.554;2022-10-31T05:48:12;96817.16;;;24.59;45.21
69187;BME280;56301;56.864;60.554;2022-10-31T05:51:09;96812.78;;;24.58;45.10
69187;BME280;56301;56.864;60.554;2022-10-31T05:53:32;96826.91;;;24.60;44.82
69187;BME280;56301;56.864;60.554;2022-10-31T05:55:55;96821.75;;;24.59;44.92
69187;BME280;56301;56.864;60.554;2022-10-31T05:58:18;96826.09;;;24.60;45.49
69187;BME280;56301;56.864;60.554;2022-10-31T06:00:57;96831.50;;;24.60;45.09
69187;BME280;56301;56.864;60.554;2022-10-31T06:03:19;96831.50;;;24.60;45.16
69187;BME280;56301;56.864;60.554;2022-10-31T06:05:43;96833.38;;;24.59;45.24
69187;BME280;56301;56.864;60.554;2022-10-31T06:08:06;96839.38;;;24.61;45.33
69187;BME280;56301;56.864;60.554;2022-10-31T06:10:29;96835.03;;;24.60;45.49
69187;BME280;56301;56.864;60.554;2022-10-31T06:12:52;96831.50;;;24.60;45.35
69187;BME280;56301;56.864;60.554;2022-10-31T06:15:41;96842.31;;;24.60;44.70
69187;BME280;56301;56.864;60.554;2022-10-31T06:18:05;96835.84;;;24.61;44.95
69187;BME280;56301;56.864;60.554;2022-10-31T06:20:47;96813.56;;;24.47;44.84
69187;BME280;56301;56.864;60.554;2022-10-31T06:23:10;96832.31;;;24.60;45.42
69187;BME280;56301;56.864;60.554;2022-10-31T06:25:33;96843.75;;;24.62;45.60
69187;BME280;56301;56.864;60.554;2022-10-31T06:27:55;96835.63;;;24.62;45.09
69187;BME280;56301;56.864;60.554;2022-10-31T06:30:23;96829.16;;;24.63;45.35
69187;BME280;56301;56.864;60.554;2022-10-31T06:32:45;96840.81;;;24.64;45.09
69187;BME280;56301;56.864;60.554;2022-10-31T06:35:09;96844.56;;;24.63;44.85
69187;BME280;56301;56.864;60.554;2022-10-31T06:37:33;96846.44;;;24.62;45.38
69187;BME280;56301;56.864;60.554;2022-10-31T06:40:11;96845.38;;;24.63;45.11
69187;BME280;56301;56.864;60.554;2022-10-31T06:43:00;96851.84;;;24.62;45.38
69187;BME280;56301;56.864;60.554;2022-10-31T06:45:23;96848.91;;;24.64;45.03
69187;BME280;56301;56.864;60.554;2022-10-31T06:48:03;96849.16;;;24.62;45.19
69187;BME280;56301;56.864;60.554;2022-10-31T06:50:31;96852.69;;;24.63;44.98
69187;BME280;56301;56.864;60.554;2022-10-31T06:52:54;96850.78;;;24.63;44.96
69187;BME280;56301;56.864;60.554;2022-10-31T06:55:17;96851.84;;;24.62;45.25
69187;BME280;56301;56.864;60.554;2022-10-31T06:57:39;96856.41;;;24.62;44.91
69187;BME280;56301;56.864;60.554;2022-10-31T07:00:04;96857.28;;;24.62;45.36
69187;BME280;56301;56.864;60.554;2022-10-31T07:02:38;96858.09;;;24.63;44.96
69187;BME280;56301;56.864;60.554;2022-10-31T07:05:01;96858.09;;;24.63;45.30
69187;BME280;56301;56.864;60.554;2022-10-31T07:07:24;96858.09;;;24.63;44.88
69187;BME280;56301;56.864;60.554;2022-10-31T07:09:47;96851.00;;;24.62;45.18
69187;BME280;56301;56.864;60.554;2022-10-31T07:12:12;96855.13;;;24.64;44.84
69187;BME280;56301;56.864;60.554;2022-10-31T07:14:39;96862.19;;;24.65;44.54
69187;BME280;56301;56.864;60.554;2022-10-31T07:17:02;96863.03;;;24.66;45.05
69187;BME280;56301;56.864;60.554;2022-10-31T07:19:31;96869.28;;;24.66;45.11
69187;BME280;56301;56.864;60.554;2022-10-31T07:21:54;96858.44;;;24.66;45.07
69187;BME280;56301;56.864;60.554;2022-10-31T07:24:16;96863.88;;;24.66;45.16
69187;BME280;56301;56.864;60.554;2022-10-31T07:26:38;96863.88;;;24.66;44.66
69187;BME280;56301;56.864;60.554;2022-10-31T07:29:01;96868.44;;;24.66;45.20
69187;BME280;56301;56.864;60.554;2022-10-31T07:31:24;96875.50;;;24.67;44.64
69187;BME280;56301;56.864;60.554;2022-10-31T07:33:49;96865.75;;;24.66;44.63
69187;BME280;56301;56.864;60.554;2022-10-31T07:36:21;96854.69;;;24.67;44.41
69187;BME280;56301;56.864;60.554;2022-10-31T07:38:46;96865.50;;;24.67;45.17
69187;BME280;56301;56.864;60.554;2022-10-31T07:41:09;96873.63;;;24.67;44.93
69187;BME280;56301;56.864;60.554;2022-10-31T07:43:36;96870.91;;;24.67;45.22
69187;BME280;56301;56.864;60.554;2022-10-31T07:46:13;96867.16;;;24.68;44.58
69187;BME280;56301;56.864;60.554;2022-10-31T07:48:41;96869.84;;;24.68;45.14
69187;BME280;56301;56.864;60.554;2022-10-31T07:51:30;96867.38;;;24.67;44.53
69187;BME280;56301;56.864;60.554;2022-10-31T07:54:31;96880.09;;;24.66;44.62
69187;BME280;56301;56.864;60.554;2022-10-31T07:56:53;96873.63;;;24.67;44.98
69187;BME280;56301;56.864;60.554;2022-10-31T07:59:16;96878.19;;;24.67;45.02
69187;BME280;56301;56.864;60.554;2022-10-31T08:01:38;96874.69;;;24.66;45.48
69187;BME280;56301;56.864;60.554;2022-10-31T08:04:21;96873.25;;;24.64;44.54
69187;BME280;56301;56.864;60.554;2022-10-31T08:07:07;96889.22;;;24.65;44.99
69187;BME280;56301;56.864;60.554;2022-10-31T08:09:32;96879.47;;;24.64;45.07
69187;BME280;56301;56.864;60.554;2022-10-31T08:11:58;96874.88;;;24.65;45.13
69187;BME280;56301;56.864;60.554;2022-10-31T08:14:21;96875.72;;;24.65;44.74
69187;BME280;56301;56.864;60.554;2022-10-31T08:16:43;96869.72;;;24.63;44.92
69187;BME280;56301;56.864;60.554;2022-10-31T08:19:06;96870.31;;;24.65;44.74
69187;BME280;56301;56.864;60.554;2022-10-31T08:21:33;96865.13;;;24.64;45.25
69187;BME280;56301;56.864;60.554;2022-10-31T08:23:56;96870.31;;;24.65;45.30
69187;BME280;56301;56.864;60.554;2022-10-31T08:26:20;96878.41;;;24.65;45.08
69187;BME280;56301;56.864;60.554;2022-10-31T08:28:44;96865.75;;;24.66;44.97
69187;BME280;56301;56.864;60.554;2022-10-31T08:31:07;96866.78;;;24.65;45.33
69187;BME280;56301;56.864;60.554;2022-10-31T08:33:35;96869.47;;;24.65;44.88
69187;BME280;56301;56.864;60.554;2022-10-31T08:36:17;96864.91;;;24.65;44.82
69187;BME280;56301;56.864;60.554;2022-10-31T08:38:59;96867.59;;;24.65;45.18
69187;BME280;56301;56.864;60.554;2022-10-31T08:41:23;96867.38;;;24.67;45.19
69187;BME280;56301;56.864;60.554;2022-10-31T08:43:46;96865.50;;;24.67;45.24
69187;BME280;56301;56.864;60.554;2022-10-31T08:46:08;96875.25;;;24.68;45.18
69187;BME280;56301;56.864;60.554;2022-10-31T08:48:31;96881.72;;;24.67;45.18
69187;BME280;56301;56.864;60.554;2022-10-31T08:50:55;96877.38;;;24.66;44.57
69187;BME280;56301;56.864;60.554;2022-10-31T08:53:18;96887.13;;;24.67;45.21
69187;BME280;56301;56.864;60.554;2022-10-31T08:55:46;96880.91;;;24.67;44.61
69187;BME280;56301;56.864;60.554;2022-10-31T08:58:20;96881.72;;;24.67;45.02
69187;BME280;56301;56.864;60.554;2022-10-31T09:00:47;96883.38;;;24.68;44.68
69187;BME280;56301;56.864;60.554;2022-10-31T09:03:14;96879.63;;;24.69;45.08
69187;BME280;56301;56.864;60.554;2022-10-31T09:05:38;96877.50;;;24.71;44.76
69187;BME280;56301;56.864;60.554;2022-10-31T09:08:01;96876.44;;;24.72;44.89
69187;BME280;56301;56.864;60.554;2022-10-31T09:10:26;96884.81;;;24.71;44.56
69187;BME280;56301;56.864;60.554;2022-10-31T09:12:58;96888.31;;;24.71;45.16
69187;BME280;56301;56.864;60.554;2022-10-31T09:15:27;96885.88;;;24.70;44.90
69187;BME280;56301;56.864;60.554;2022-10-31T09:18:15;96882.56;;;24.68;44.89
69187;BME280;56301;56.864;60.554;2022-10-31T09:20:53;96883.63;;;24.67;44.37
69187;BME280;56301;56.864;60.554;2022-10-31T09:23:16;96887.38;;;24.66;45.02
69187;BME280;56301;56.864;60.554;2022-10-31T09:25:40;96883.00;;;24.65;44.65
69187;BME280;56301;56.864;60.554;2022-10-31T09:28:25;96895.50;;;24.66;44.44
69187;BME280;56301;56.864;60.554;2022-10-31T09:30:50;96896.31;;;24.66;44.96
69187;BME280;56301;56.864;60.554;2022-10-31T09:33:22;96890.28;;;24.64;44.74
69187;BME280;56301;56.864;60.554;2022-10-31T09:35:58;96887.59;;;24.64;45.05
69187;BME280;56301;56.864;60.554;2022-10-31T09:38:20;96887.59;;;24.64;44.99
69187;BME280;56301;56.864;60.554;2022-10-31T09:40:45;96885.94;;;24.63;45.04
69187;BME280;56301;56.864;60.554;2022-10-31T09:43:15;96884.31;;;24.62;44.79
69187;BME280;56301;56.864;60.554;2022-10-31T09:51:11;96885.34;;;24.61;44.16
69187;BME280;56301;56.864;60.554;2022-10-31T09:53:49;96888.88;;;24.62;44.06
69187;BME280;56301;56.864;60.554;2022-10-31T09:56:18;96887.47;;;24.59;44.67
69187;BME280;56301;56.864;60.554;2022-10-31T09:58:45;96893.44;;;24.61;44.93
69187;BME280;56301;56.864;60.554;2022-10-31T10:01:16;96894.28;;;24.62;44.03
69187;BME280;56301;56.864;60.554;2022-10-31T10:03:43;96894.50;;;24.60;44.90
69187;BME280;56301;56.864;60.554;2022-10-31T10:06:28;96893.69;;;24.60;44.35
69187;BME280;56301;56.864;60.554;2022-10-31T10:09:26;96900.75;;;24.61;44.51
69187;BME280;56301;56.864;60.554;2022-10-31T10:19:56;96903.00;;;24.64;44.29
69187;BME280;56301;56.864;60.554;2022-10-31T10:30:21;96906.75;;;24.63;44.29
69187;BME280;56301;56.864;60.554;2022-10-31T10:32:51;96910.28;;;24.63;44.04
69187;BME280;56301;56.864;60.554;2022-10-31T10:35:19;96912.16;;;24.63;44.15
69187;BME280;56301;56.864;60.554;2022-10-31T10:37:43;96920.50;;;24.61;44.74
69187;BME280;56301;56.864;60.554;2022-10-31T10:42:30;96912.63;;;24.60;44.56
69187;BME280;56301;56.864;60.554;2022-10-31T10:44:53;96911.56;;;24.61;44.10
69187;BME280;56301;56.864;60.554;2022-10-31T10:47:15;96913.19;;;24.62;44.45
69187;BME280;56301;56.864;60.554;2022-10-31T10:49:44;96916.75;;;24.62;44.31
69187;BME280;56301;56.864;60.554;2022-10-31T10:52:17;96918.41;;;24.63;44.23
69187;BME280;56301;56.864;60.554;2022-10-31T10:54:59;96922.16;;;24.62;44.23
69187;BME280;56301;56.864;60.554;2022-10-31T10:59:49;96929.22;;;24.63;43.88
69187;BME280;56301;56.864;60.554;2022-10-31T11:02:22;96932.97;;;24.62;43.99
69187;BME280;56301;56.864;60.554;2022-10-31T11:04:47;96940.03;;;24.63;43.76
69187;BME280;56301;56.864;60.554;2022-10-31T11:07:11;96936.28;;;24.64;43.39
69187;BME280;56301;56.864;60.554;2022-10-31T11:09:34;96939.22;;;24.63;43.33
69187;BME280;56301;56.864;60.554;2022-10-31T11:11:57;96942.72;;;24.63;43.86
69187;BME280;56301;56.864;60.554;2022-10-31T11:14:20;96943.81;;;24.62;43.98
69187;BME280;56301;56.864;60.554;2022-10-31T11:16:43;96945.44;;;24.63;44.16
69187;BME280;56301;56.864;60.554;2022-10-31T11:21:35;96941.09;;;24.62;43.66
69187;BME280;56301;56.864;60.554;2022-10-31T11:26:25;96958.97;;;24.63;44.16
69187;BME280;56301;56.864;60.554;2022-10-31T11:28:57;96953.75;;;24.62;44.21
69187;BME280;56301;56.864;60.554;2022-10-31T11:31:20;96955.66;;;24.61;43.66
69187;BME280;56301;56.864;60.554;2022-10-31T11:33:49;96961.06;;;24.61;43.19
69187;BME280;56301;56.864;60.554;2022-10-31T11:36:23;96962.13;;;24.60;44.02
69187;BME280;56301;56.864;60.554;2022-10-31T11:38:46;96960.22;;;24.61;43.65
69187;BME280;56301;56.864;60.554;2022-10-31T11:43:45;96930.88;;;24.46;44.02
69187;BME280;56301;56.864;60.554;2022-10-31T11:46:11;96962.94;;;24.61;43.79
69187;BME280;56301;56.864;60.554;2022-10-31T11:48:34;96979.97;;;24.61;43.98
69187;BME280;56301;56.864;60.554;2022-10-31T11:50:57;96968.34;;;24.61;44.01
69187;BME280;56301;56.864;60.554;2022-10-31T11:53:23;96967.53;;;24.60;43.82
69187;BME280;56301;56.864;60.554;2022-10-31T11:55:48;96975.41;;;24.62;43.91
69187;BME280;56301;56.864;60.554;2022-10-31T11:58:23;96973.53;;;24.62;44.20
69187;BME280;56301;56.864;60.554;2022-10-31T12:00:50;96975.41;;;24.62;43.81
69187;BME280;56301;56.864;60.554;2022-10-31T12:05:38;96969.16;;;24.61;44.14
69187;BME280;56301;56.864;60.554;2022-10-31T12:08:02;96972.94;;;24.60;44.17
69187;BME280;56301;56.864;60.554;2022-10-31T12:10:28;96969.16;;;24.61;43.90
69187;BME280;56301;56.864;60.554;2022-10-31T12:15:39;96963.75;;;24.61;44.08
69187;BME280;56301;56.864;60.554;2022-10-31T12:20:46;96965.44;;;24.62;43.39
69187;BME280;56301;56.864;60.554;2022-10-31T12:23:28;96965.19;;;24.64;43.73
69187;BME280;56301;56.864;60.554;2022-10-31T12:33:41;96981.03;;;24.60;43.79
69187;BME280;56301;56.864;60.554;2022-10-31T12:56:13;97002.06;;;24.58;43.73
69187;BME280;56301;56.864;60.554;2022-10-31T12:58:44;97010.94;;;24.65;43.77
69187;BME280;56301;56.864;60.554;2022-10-31T13:01:12;97010.47;;;24.68;43.46
69187;BME280;56301;56.864;60.554;2022-10-31T13:06:28;97006.13;;;24.67;41.17
69187;BME280;56301;56.864;60.554;2022-10-31T13:08:52;97004.50;;;24.66;40.95
69187;BME280;56301;56.864;60.554;2022-10-31T13:11:20;97006.13;;;24.67;40.77
69187;BME280;56301;56.864;60.554;2022-10-31T13:16:25;97007.78;;;24.68;39.43
69187;BME280;56301;56.864;60.554;2022-10-31T13:22:17;97011.09;;;24.70;41.09
69187;BME280;56301;56.864;60.554;2022-10-31T13:24:16;97004.88;;;24.70;40.76
69187;BME280;56301;56.864;60.554;2022-10-31T13:26:41;97015.69;;;24.70;40.37
69187;BME280;56301;56.864;60.554;2022-10-31T13:31:40;97006.75;;;24.69;40.12
69187;BME280;56301;56.864;60.554;2022-10-31T13:34:16;97007.56;;;24.70;39.85
69187;BME280;56301;56.864;60.554;2022-10-31T13:36:42;97015.69;;;24.70;40.28
69187;BME280;56301;56.864;60.554;2022-10-31T13:44:26;96996.97;;;24.68;39.49
69187;BME280;56301;56.864;60.554;2022-10-31T13:46:49;96995.94;;;24.69;40.79
69187;BME280;56301;56.864;60.554;2022-10-31T13:51:47;97001.34;;;24.69;39.57
69187;BME280;56301;56.864;60.554;2022-10-31T13:54:23;96997.78;;;24.69;39.53
69187;BME280;56301;56.864;60.554;2022-10-31T13:56:48;97002.38;;;24.68;40.13
69187;BME280;56301;56.864;60.554;2022-10-31T14:01:33;97011.09;;;24.70;40.74
69187;BME280;56301;56.864;60.554;2022-10-31T14:03:58;97021.91;;;24.70;40.31
69187;BME280;56301;56.864;60.554;2022-10-31T14:06:22;97016.50;;;24.70;40.62
69187;BME280;56301;56.864;60.554;2022-10-31T14:08:51;97024.63;;;24.70;40.16
69187;BME280;56301;56.864;60.554;2022-10-31T14:11:24;97030.59;;;24.72;41.98
69187;BME280;56301;56.864;60.554;2022-10-31T14:13:47;97036.88;;;24.73;41.60
69187;BME280;56301;56.864;60.554;2022-10-31T14:16:26;97041.44;;;24.72;41.41
69187;BME280;56301;56.864;60.554;2022-10-31T14:18:59;97059.34;;;24.73;41.24
69187;BME280;56301;56.864;60.554;2022-10-31T14:23:46;97053.09;;;24.73;42.64
69187;BME280;56301;56.864;60.554;2022-10-31T14:28:40;97060.16;;;24.74;42.07
69187;BME280;56301;56.864;60.554;2022-10-31T14:31:02;97048.50;;;24.73;42.17
69187;BME280;56301;56.864;60.554;2022-10-31T14:33:44;97047.06;;;24.71;41.42
69187;BME280;56301;56.864;60.554;2022-10-31T14:36:11;97038.13;;;24.70;40.86
69187;BME280;56301;56.864;60.554;2022-10-31T14:39:27;97026.50;;;24.70;41.28
69187;BME280;56301;56.864;60.554;2022-10-31T14:43:48;97010.28;;;24.70;40.03
69187;BME280;56301;56.864;60.554;2022-10-31T14:46:17;97012.97;;;24.70;40.76
69187;BME280;56301;56.864;60.554;2022-10-31T14:51:14;97024.81;;;24.69;41.33
69187;BME280;56301;56.864;60.554;2022-10-31T14:53:45;97024.00;;;24.68;40.93
69187;BME280;56301;56.864;60.554;2022-10-31T14:56:10;97039.41;;;24.86;40.47
69187;BME280;56301;56.864;60.554;2022-10-31T14:58:38;97034.38;;;24.90;40.29
69187;BME280;56301;56.864;60.554;2022-10-31T15:01:02;97038.06;;;24.95;40.59
69187;BME280;56301;56.864;60.554;2022-10-31T15:03:32;97034.97;;;24.92;40.85
69187;BME280;56301;56.864;60.554;2022-10-31T15:05:56;97033.66;;;24.94;40.39
69187;BME280;56301;56.864;60.554;2022-10-31T15:08:32;97034.53;;;24.95;40.83
69187;BME280;56301;56.864;60.554;2022-10-31T15:10:55;97021.59;;;24.97;40.47
69187;BME280;56301;56.864;60.554;2022-10-31T15:13:18;97034.53;;;24.95;39.86
69187;BME280;56301;56.864;60.554;2022-10-31T15:15:41;97026.53;;;25.00;39.66
69187;BME280;56301;56.864;60.554;2022-10-31T15:18:04;97026.53;;;25.00;40.50
69187;BME280;56301;56.864;60.554;2022-10-31T15:20:27;97013.16;;;25.05;40.52
69187;BME280;56301;56.864;60.554;2022-10-31T15:22:50;97023.16;;;25.05;40.47
69187;BME280;56301;56.864;60.554;2022-10-31T15:25:19;97014.81;;;25.06;40.63